Time;durP1;ratioP1;P1;durP2;ratioP2;P2;SDS_P1;SDS_P2;PMS_P1;PMS_P2;Temp;Humidity;BMP_temperature;BMP_pressure;BME280_temperature;BME280_humidity;BME280_pressure;Samples;Min_cycle;Max_cycle;Signal;HPM_P1;HPM_P2
2022/11/29 00:00:31;;;;;;;20.10;10.07;;;8.20;99.90;;;;;;5071862;28;20245;-46
2022/11/29 00:02:57;;;;;;;20.30;10.10;;;8.20;99.90;;;;;;5071921;28;20166;-46
2022/11/29 00:05:22;;;;;;;19.65;9.93;;;8.20;99.90;;;;;;5071912;28;20521;-47
2022/11/29 00:07:48;;;;;;;17.98;9.40;;;8.20;99.90;;;;;;5071837;28;20638;-47
2022/11/29 00:10:14;;;;;;;19.60;10.18;;;8.20;99.90;;;;;;5072320;28;20161;-46
2022/11/29 00:12:39;;;;;;;22.30;10.10;;;8.20;99.90;;;;;;5071808;28;20506;-46
2022/11/29 00:15:05;;;;;;;21.52;9.77;;;8.20;99.90;;;;;;5071042;28;20180;-46
2022/11/29 00:17:31;;;;;;;20.85;9.98;;;8.30;99.90;;;;;;5071917;28;20663;-46
2022/11/29 00:19:56;;;;;;;18.48;10.38;;;8.30;99.90;;;;;;5071780;28;20170;-47
2022/11/29 00:22:24;;;;;;;18.75;9.45;;;8.30;99.90;;;;;;5053710;28;20513;-46
2022/11/29 00:24:50;;;;;;;29.42;9.55;;;8.30;99.90;;;;;;5071704;28;20161;-46
2022/11/29 00:27:16;;;;;;;20.70;9.93;;;8.30;99.90;;;;;;5071987;28;20159;-47
2022/11/29 00:29:41;;;;;;;17.42;10.23;;;8.30;99.90;;;;;;5071622;28;20216;-47
2022/11/29 00:32:07;;;;;;;19.92;10.20;;;8.30;99.90;;;;;;5053790;28;20573;-46
2022/11/29 00:34:32;;;;;;;23.67;10.93;;;8.30;99.90;;;;;;5071633;28;20177;-47
2022/11/29 00:36:58;;;;;;;23.73;10.82;;;8.30;99.90;;;;;;5071507;28;20162;-46
2022/11/29 00:39:24;;;;;;;19.83;10.38;;;8.30;99.90;;;;;;5071769;28;20209;-47
2022/11/29 00:41:49;;;;;;;19.45;10.05;;;8.30;99.90;;;;;;5071504;28;20162;-47
2022/11/29 00:44:15;;;;;;;18.10;9.70;;;8.30;99.90;;;;;;5071863;28;20181;-46
2022/11/29 00:46:41;;;;;;;18.48;9.65;;;8.20;99.90;;;;;;5071503;28;20170;-46
2022/11/29 00:49:06;;;;;;;17.92;9.35;;;8.30;99.90;;;;;;5071399;28;20267;-46
2022/11/29 00:51:32;;;;;;;21.00;10.68;;;8.30;99.90;;;;;;5071513;28;20170;-46
2022/11/29 00:53:57;;;;;;;17.48;10.40;;;8.30;99.90;;;;;;5071389;28;20169;-47
2022/11/29 00:56:23;;;;;;;19.08;10.05;;;8.30;99.90;;;;;;5071417;28;20166;-46
2022/11/29 00:58:48;;;;;;;20.67;9.93;;;8.20;99.90;;;;;;5071264;28;20212;-46
2022/11/29 01:01:14;;;;;;;23.88;10.10;;;8.30;99.90;;;;;;5071563;28;20210;-47
2022/11/29 01:03:40;;;;;;;20.15;10.10;;;8.20;99.90;;;;;;5071087;28;20170;-47
2022/11/29 01:06:09;;;;;;;17.70;10.68;;;8.20;99.90;;;;;;5071258;28;20177;-47
2022/11/29 01:08:35;;;;;;;22.23;10.15;;;8.30;99.90;;;;;;5071350;28;20207;-46
2022/11/29 01:11:06;;;;;;;19.00;11.55;;;8.30;99.90;;;;;;5071307;28;20653;-46
2022/11/29 01:13:34;;;;;;;23.23;11.18;;;8.30;99.90;;;;;;5071380;28;20669;-47
2022/11/29 01:15:59;;;;;;;21.75;10.85;;;8.30;99.90;;;;;;5053176;28;20249;-46
2022/11/29 01:18:26;;;;;;;23.63;10.50;;;8.30;99.90;;;;;;5071073;28;20293;-46
2022/11/29 01:21:22;;;;;;;16.67;10.30;;;8.20;99.90;;;;;;5071242;28;20158;-47
2022/11/29 01:23:49;;;;;;;22.35;10.25;;;8.30;99.90;;;;;;5050135;28;20182;-46
2022/11/29 01:26:17;;;;;;;19.30;9.85;;;8.30;99.90;;;;;;5072798;28;20524;-46
2022/11/29 01:28:46;;;;;;;19.80;10.75;;;8.30;99.90;;;;;;5075123;28;20162;-46
2022/11/29 01:31:15;;;;;;;26.85;11.63;;;8.30;99.90;;;;;;5074772;28;20170;-46
2022/11/29 01:33:41;;;;;;;23.92;12.27;;;8.30;99.90;;;;;;5074655;28;20161;-46
2022/11/29 01:36:08;;;;;;;27.02;13.30;;;8.30;99.90;;;;;;5074568;28;20630;-46
2022/11/29 01:38:35;;;;;;;27.40;12.07;;;8.40;99.90;;;;;;5074550;28;20221;-47
2022/11/29 01:41:07;;;;;;;26.60;12.15;;;8.40;99.90;;;;;;5074590;28;20197;-46
2022/11/29 01:43:52;;;;;;;26.50;11.95;;;8.50;99.90;;;;;;5074567;28;20226;-46
2022/11/29 01:46:18;;;;;;;23.48;10.95;;;8.40;99.90;;;;;;5074327;28;20173;-46
2022/11/29 01:48:44;;;;;;;24.83;12.23;;;8.40;99.90;;;;;;5074901;28;20170;-47
2022/11/29 01:51:09;;;;;;;26.77;10.45;;;8.40;99.90;;;;;;5074337;28;20162;-46
2022/11/29 01:53:35;;;;;;;18.38;10.90;;;8.40;99.90;;;;;;5074231;28;20185;-46
2022/11/29 01:56:04;;;;;;;16.30;10.15;;;8.40;99.90;;;;;;5074239;28;20630;-46
2022/11/29 01:58:30;;;;;;;22.88;11.63;;;8.40;99.90;;;;;;5074140;28;20275;-46
2022/11/29 02:00:57;;;;;;;20.25;11.50;;;8.40;99.90;;;;;;5074142;28;20725;-46
2022/11/29 02:03:23;;;;;;;23.05;11.27;;;8.40;99.90;;;;;;5074173;28;20533;-47
2022/11/29 02:05:50;;;;;;;29.23;12.48;;;8.40;99.90;;;;;;5074350;28;20170;-47
2022/11/29 02:08:22;;;;;;;23.38;12.25;;;8.40;99.90;;;;;;5074560;28;20708;-47
2022/11/29 02:11:08;;;;;;;22.33;12.05;;;8.40;99.90;;;;;;5074013;28;20215;-47
2022/11/29 02:13:50;;;;;;;23.90;12.25;;;8.40;99.90;;;;;;5073976;28;20185;-47
2022/11/29 02:16:27;;;;;;;27.17;12.68;;;8.40;99.90;;;;;;5074293;28;20157;-46
2022/11/29 02:19:30;;;;;;;24.73;11.52;;;8.40;99.90;;;;;;5073762;28;20229;-47
2022/11/29 02:22:13;;;;;;;29.58;12.25;;;8.40;99.90;;;;;;5073809;28;20165;-46
2022/11/29 02:25:06;;;;;;;23.70;12.23;;;8.40;99.90;;;;;;5073776;28;20162;-46
2022/11/29 02:28:08;;;;;;;17.30;11.55;;;8.40;99.90;;;;;;5073637;28;20158;-46
2022/11/29 02:30:39;;;;;;;26.65;11.85;;;8.30;99.90;;;;;;5073645;28;20256;-46
2022/11/29 02:33:28;;;;;;;20.65;10.93;;;8.40;99.90;;;;;;5055767;28;20577;-46
2022/11/29 02:36:22;;;;;;;26.35;12.23;;;8.40;99.90;;;;;;5073212;28;20177;-46
2022/11/29 02:39:09;;;;;;;22.23;12.88;;;8.30;99.90;;;;;;5072873;28;20240;-46
2022/11/29 02:41:48;;;;;;;27.50;12.02;;;8.40;99.90;;;;;;5073450;28;20162;-47
2022/11/29 02:44:29;;;;;;;27.90;12.00;;;8.30;99.90;;;;;;5073933;28;20169;-46
2022/11/29 02:47:04;;;;;;;32.13;12.38;;;8.40;99.90;;;;;;5073538;28;20157;-47
2022/11/29 02:49:33;;;;;;;25.38;11.65;;;8.40;99.90;;;;;;5073397;28;20161;-46
2022/11/29 02:52:14;;;;;;;27.17;11.82;;;8.30;99.90;;;;;;5073312;28;20664;-46
2022/11/29 02:54:49;;;;;;;21.77;11.90;;;8.30;99.90;;;;;;5073240;28;20188;-46
2022/11/29 02:57:49;;;;;;;29.30;11.60;;;8.30;99.90;;;;;;5073527;28;20158;-46
2022/11/29 03:00:19;;;;;;;19.25;11.20;;;8.40;99.90;;;;;;5073270;28;20225;-46
2022/11/29 03:03:02;;;;;;;24.00;12.25;;;8.30;99.90;;;;;;5073456;28;20172;-46
2022/11/29 03:05:47;;;;;;;27.77;13.57;;;8.30;99.90;;;;;;5054946;28;20545;-46
2022/11/29 03:08:28;;;;;;;22.38;11.68;;;8.40;99.90;;;;;;5073280;28;20166;-46
2022/11/29 03:10:56;;;;;;;26.25;12.30;;;8.30;99.90;;;;;;5072887;28;20172;-46
2022/11/29 03:13:59;;;;;;;22.73;12.45;;;8.30;99.90;;;;;;5073043;28;20170;-46
2022/11/29 03:16:57;;;;;;;37.92;14.70;;;8.40;99.90;;;;;;5072763;28;20617;-47
2022/11/29 03:19:58;;;;;;;68.57;22.48;;;8.40;99.90;;;;;;5071933;28;20243;-47
2022/11/29 03:22:35;;;;;;;48.30;20.38;;;8.10;99.90;;;;;;5072955;28;20166;-46
2022/11/29 03:25:08;;;;;;;54.47;22.70;;;8.50;99.90;;;;;;5072627;28;20162;-46
2022/11/29 03:27:55;;;;;;;47.65;20.73;;;8.50;99.90;;;;;;5054532;28;20202;-47
2022/11/29 03:30:21;;;;;;;50.65;20.67;;;8.50;99.90;;;;;;5072438;28;20169;-46
2022/11/29 03:33:11;;;;;;;53.13;21.40;;;8.50;99.90;;;;;;5072507;28;20170;-48
2022/11/29 03:36:12;;;;;;;54.17;21.63;;;8.50;99.90;;;;;;5072337;28;20173;-46
2022/11/29 03:38:41;;;;;;;54.55;22.92;;;8.60;99.90;;;;;;5072036;28;20296;-46
2022/11/29 03:41:24;;;;;;;46.80;20.85;;;8.50;99.90;;;;;;5071965;28;20677;-47
2022/11/29 03:44:02;;;;;;;63.28;23.70;;;8.50;99.90;;;;;;5072204;28;20224;-46
2022/11/29 03:46:38;;;;;;;57.85;22.83;;;8.50;99.90;;;;;;5072173;28;20166;-47
2022/11/29 03:49:15;;;;;;;63.42;23.55;;;8.60;99.90;;;;;;5072054;28;20630;-46
2022/11/29 03:51:49;;;;;;;70.03;23.38;;;8.50;99.90;;;;;;5072061;28;20169;-46
2022/11/29 03:54:24;;;;;;;58.03;23.20;;;8.50;99.90;;;;;;5072666;28;20256;-47
2022/11/29 03:56:50;;;;;;;62.17;24.85;;;8.60;99.90;;;;;;5071823;28;20183;-47
2022/11/29 03:59:48;;;;;;;68.13;24.05;;;8.60;99.90;;;;;;5072280;28;20201;-46
2022/11/29 04:02:44;;;;;;;62.53;23.67;;;8.50;99.90;;;;;;5072287;28;20629;-47
2022/11/29 04:05:31;;;;;;;74.82;23.40;;;8.50;99.90;;;;;;5071956;28;20249;-46
2022/11/29 04:08:55;;;;;;;68.70;24.25;;;8.50;99.90;;;;;;5071838;28;20621;-46
2022/11/29 04:11:57;;;;;;;57.42;22.75;;;8.60;99.90;;;;;;4971081;28;20169;-46
2022/11/29 04:14:53;;;;;;;64.53;22.92;;;8.50;99.90;;;;;;4954458;28;20584;-46
2022/11/29 04:17:40;;;;;;;71.50;25.35;;;8.60;99.90;;;;;;5063916;28;20653;-47
2022/11/29 04:20:18;;;;;;;59.80;25.75;;;8.60;99.90;;;;;;5071716;28;20191;-48
2022/11/29 04:23:07;;;;;;;69.18;24.17;;;8.50;99.90;;;;;;5072105;28;20520;-46
2022/11/29 04:26:01;;;;;;;68.28;24.02;;;8.50;99.90;;;;;;5071602;28;20166;-46
2022/11/29 04:28:53;;;;;;;74.20;25.13;;;8.40;99.90;;;;;;5071609;28;20158;-47
2022/11/29 04:31:40;;;;;;;70.28;22.65;;;8.50;99.90;;;;;;5066596;28;20186;-46
2022/11/29 04:34:36;;;;;;;76.10;27.85;;;8.50;99.90;;;;;;5071656;28;20165;-46
2022/11/29 04:37:27;;;;;;;64.88;23.67;;;8.50;99.90;;;;;;5071858;28;20168;-47
2022/11/29 04:40:20;;;;;;;74.07;24.27;;;8.60;99.90;;;;;;5071473;28;20189;-45
2022/11/29 04:43:17;;;;;;;78.80;25.85;;;8.50;99.90;;;;;;5071894;28;20241;-46
2022/11/29 04:45:51;;;;;;;81.07;25.45;;;8.50;99.90;;;;;;5071903;28;20170;-46
2022/11/29 04:48:19;;;;;;;81.35;26.40;;;8.40;99.90;;;;;;5071380;28;20165;-46
2022/11/29 04:51:25;;;;;;;88.50;26.80;;;8.50;99.90;;;;;;5071785;28;20537;-46
2022/11/29 04:53:54;;;;;;;75.80;27.50;;;8.50;99.90;;;;;;5070986;28;20177;-46
2022/11/29 04:56:47;;;;;;;88.30;26.67;;;8.50;99.90;;;;;;5053352;28;20176;-46
2022/11/29 04:59:31;;;;;;;89.43;28.55;;;8.50;99.90;;;;;;5071337;28;20202;-46
2022/11/29 05:02:06;;;;;;;81.03;26.85;;;8.50;99.90;;;;;;5073727;28;20235;-46
2022/11/29 05:04:47;;;;;;;98.55;27.15;;;8.50;99.90;;;;;;5075266;28;20169;-47
2022/11/29 05:07:26;;;;;;;80.97;26.38;;;8.40;99.90;;;;;;5075535;28;20173;-47
2022/11/29 05:10:16;;;;;;;92.13;25.67;;;8.50;99.90;;;;;;5075207;28;20161;-46
2022/11/29 05:12:55;;;;;;;94.65;29.02;;;8.40;99.90;;;;;;5075437;28;20163;-46
2022/11/29 05:15:44;;;;;;;98.15;30.65;;;8.50;99.90;;;;;;5075034;28;20189;-46
2022/11/29 05:18:09;;;;;;;100.10;30.23;;;8.50;99.90;;;;;;5074898;28;20193;-46
2022/11/29 05:20:49;;;;;;;97.65;29.02;;;8.50;99.90;;;;;;5074901;28;20185;-46
2022/11/29 05:23:41;;;;;;;104.63;31.67;;;8.50;99.90;;;;;;5075271;28;20153;-46
2022/11/29 05:26:26;;;;;;;110.78;32.63;;;8.50;99.90;;;;;;5074707;28;20256;-49
2022/11/29 05:29:07;;;;;;;105.25;30.48;;;8.50;99.90;;;;;;5074874;28;20166;-46
2022/11/29 05:32:20;;;;;;;102.72;31.50;;;8.50;99.90;;;;;;5074674;28;20186;-49
2022/11/29 05:34:58;;;;;;;91.63;31.13;;;8.50;99.90;;;;;;5030195;28;20178;-46
2022/11/29 05:37:36;;;;;;;96.95;31.23;;;8.50;99.90;;;;;;5074503;28;20253;-49
2022/11/29 05:40:33;;;;;;;107.13;31.00;;;8.50;99.90;;;;;;5074584;28;20166;-46
2022/11/29 05:43:21;;;;;;;104.95;32.08;;;8.40;99.90;;;;;;5074751;28;20174;-46
2022/11/29 05:46:26;;;;;;;92.30;29.60;;;8.40;99.90;;;;;;5074432;28;20207;-46
2022/11/29 05:49:35;;;;;;;94.53;32.33;;;8.50;99.90;;;;;;5071480;28;20177;-46
2022/11/29 05:52:23;;;;;;;95.78;29.42;;;8.40;99.90;;;;;;5060164;28;20646;-46
2022/11/29 05:55:13;;;;;;;101.60;31.60;;;8.50;99.90;;;;;;5052892;28;20182;-47
2022/11/29 05:58:10;;;;;;;104.00;32.80;;;8.50;99.90;;;;;;5052494;28;20202;-45
2022/11/29 06:00:47;;;;;;;100.38;31.40;;;8.50;99.90;;;;;;5052173;28;20222;-48
2022/11/29 06:03:35;;;;;;;98.88;32.00;;;8.40;99.90;;;;;;5052809;28;20533;-47
2022/11/29 06:06:23;;;;;;;82.10;29.40;;;8.50;99.90;;;;;;5055930;28;20246;-44
2022/11/29 06:09:17;;;;;;;93.25;27.75;;;8.40;99.90;;;;;;5072030;28;20186;-46
2022/11/29 06:12:21;;;;;;;92.97;30.65;;;8.40;99.90;;;;;;5072297;28;20165;-45
2022/11/29 06:14:54;;;;;;;91.30;31.13;;;8.40;99.90;;;;;;5063160;28;20272;-44
2022/11/29 06:17:31;;;;;;;99.25;30.73;;;8.40;99.90;;;;;;5072270;28;20166;-46
2022/11/29 06:20:25;;;;;;;95.68;28.67;;;8.50;99.90;;;;;;5072302;28;20170;-46
2022/11/29 06:23:11;;;;;;;89.38;29.45;;;8.50;99.90;;;;;;5072070;28;20184;-45
2022/11/29 06:25:49;;;;;;;97.85;28.60;;;8.50;99.90;;;;;;5071692;28;20649;-44
2022/11/29 06:28:42;;;;;;;98.22;30.42;;;8.40;99.90;;;;;;5072274;28;20593;-47
2022/11/29 06:31:10;;;;;;;95.68;29.77;;;8.50;99.90;;;;;;5072163;28;20181;-48
2022/11/29 06:33:55;;;;;;;97.95;31.65;;;8.50;99.90;;;;;;5071666;28;20515;-46
2022/11/29 06:36:29;;;;;;;105.45;32.58;;;8.40;99.90;;;;;;5071652;28;20637;-46
2022/11/29 06:38:55;;;;;;;101.50;31.75;;;8.50;99.90;;;;;;5072017;28;20205;-45
2022/11/29 06:41:22;;;;;;;105.20;30.65;;;8.50;99.90;;;;;;5071592;28;20166;-44
2022/11/29 06:43:49;;;;;;;101.53;30.55;;;8.50;99.90;;;;;;5053681;28;20547;-47
2022/11/29 06:46:35;;;;;;;96.75;30.75;;;8.50;99.90;;;;;;5052673;28;20527;-45
2022/11/29 06:49:10;;;;;;;111.78;31.70;;;8.50;99.90;;;;;;5071594;28;20196;-45
2022/11/29 06:51:54;;;;;;;121.47;33.92;;;8.50;99.90;;;;;;5070519;28;20668;-44
2022/11/29 06:54:43;;;;;;;120.53;33.35;;;8.50;99.90;;;;;;5071183;28;20272;-46
2022/11/29 06:57:21;;;;;;;113.97;35.70;;;8.50;99.90;;;;;;5020192;28;20192;-45
2022/11/29 07:00:03;;;;;;;110.50;34.65;;;8.50;99.90;;;;;;5070920;28;20193;-46
2022/11/29 07:02:59;;;;;;;134.20;33.80;;;8.50;99.90;;;;;;5071303;28;20170;-49
2022/11/29 07:05:30;;;;;;;111.70;32.05;;;8.50;99.90;;;;;;5071187;28;20247;-43
2022/11/29 07:08:00;;;;;;;113.18;31.70;;;8.50;99.90;;;;;;5071069;28;20182;-44
2022/11/29 07:10:27;;;;;;;102.85;33.25;;;8.50;99.90;;;;;;5071264;28;20532;-44
2022/11/29 07:12:53;;;;;;;96.65;28.98;;;8.50;99.90;;;;;;5052989;28;20662;-46
2022/11/29 07:15:21;;;;;;;110.00;31.38;;;8.50;99.90;;;;;;5070834;28;20205;-44
2022/11/29 07:18:08;;;;;;;111.85;33.15;;;8.50;99.90;;;;;;5071133;28;20201;-45
2022/11/29 07:21:02;;;;;;;106.55;31.55;;;8.50;99.90;;;;;;5070939;28;20169;-45
2022/11/29 07:23:35;;;;;;;120.63;33.38;;;8.50;99.90;;;;;;5069616;28;20201;-45
2022/11/29 07:26:29;;;;;;;106.93;32.50;;;8.50;99.90;;;;;;5070971;28;20245;-44
2022/11/29 07:29:28;;;;;;;128.75;33.92;;;8.50;99.90;;;;;;5070923;28;20209;-44
2022/11/29 07:32:08;;;;;;;119.30;34.85;;;8.50;99.90;;;;;;5070736;28;20642;-45
2022/11/29 07:34:43;;;;;;;116.60;32.42;;;8.50;99.90;;;;;;5070650;28;20184;-46
2022/11/29 07:37:43;;;;;;;126.18;34.60;;;8.50;99.90;;;;;;5070880;28;20601;-47
2022/11/29 07:40:17;;;;;;;110.90;31.60;;;8.50;99.90;;;;;;5051038;28;20688;-46
2022/11/29 07:42:51;;;;;;;106.10;31.55;;;8.60;99.90;;;;;;5072519;28;20162;-46
2022/11/29 07:45:27;;;;;;;112.88;32.50;;;8.50;99.90;;;;;;5072172;28;20318;-47
2022/11/29 07:47:53;;;;;;;113.50;31.95;;;8.60;99.90;;;;;;5072388;28;20166;-46
2022/11/29 07:50:20;;;;;;;104.25;32.40;;;8.50;99.90;;;;;;5072187;28;20648;-46
2022/11/29 07:52:47;;;;;;;116.03;31.48;;;8.50;99.90;;;;;;5072320;28;20170;-46
2022/11/29 07:55:14;;;;;;;118.45;32.13;;;8.60;99.90;;;;;;5072434;28;20172;-46
2022/11/29 07:57:40;;;;;;;95.75;30.75;;;8.60;99.90;;;;;;5072279;28;20193;-46
2022/11/29 08:00:06;;;;;;;92.75;29.55;;;8.50;99.90;;;;;;5071848;28;20614;-47
2022/11/29 08:02:32;;;;;;;115.25;31.58;;;8.60;99.90;;;;;;5072189;28;20614;-47
2022/11/29 08:04:57;;;;;;;93.50;29.30;;;8.60;99.90;;;;;;5053973;28;20227;-46
2022/11/29 08:07:23;;;;;;;83.20;28.48;;;8.60;99.90;;;;;;5071837;28;20280;-46
2022/11/29 08:09:49;;;;;;;92.72;29.48;;;8.50;99.90;;;;;;5071874;28;20164;-47
2022/11/29 08:12:15;;;;;;;87.75;28.30;;;8.60;99.90;;;;;;5072164;28;20618;-47
2022/11/29 08:14:40;;;;;;;88.88;28.40;;;8.50;99.90;;;;;;5072144;28;20204;-46
2022/11/29 08:17:06;;;;;;;85.32;26.17;;;8.50;99.90;;;;;;5071746;28;20162;-47
2022/11/29 08:19:32;;;;;;;92.38;33.33;;;8.50;99.90;;;;;;5071501;28;20258;-46
2022/11/29 08:21:57;;;;;;;92.05;30.88;;;8.50;99.90;;;;;;5071583;28;20526;-47
2022/11/29 08:24:23;;;;;;;92.10;27.90;;;8.60;99.90;;;;;;5071782;28;20525;-47
2022/11/29 08:26:48;;;;;;;93.15;27.48;;;8.60;99.90;;;;;;5071536;28;20291;-47
2022/11/29 08:29:14;;;;;;;87.53;27.25;;;8.60;99.90;;;;;;5071988;28;20173;-46
2022/11/29 08:31:40;;;;;;;99.57;28.25;;;8.60;99.90;;;;;;5072010;28;20173;-47
2022/11/29 08:34:07;;;;;;;95.63;30.20;;;8.60;99.90;;;;;;5071587;28;20176;-46
2022/11/29 08:36:32;;;;;;;98.50;28.02;;;8.60;99.90;;;;;;5053126;28;20165;-46
2022/11/29 08:39:01;;;;;;;91.78;27.02;;;8.70;99.90;;;;;;5071342;28;20201;-46
2022/11/29 08:41:27;;;;;;;93.07;29.10;;;8.60;99.90;;;;;;5071712;28;20204;-46
2022/11/29 08:43:53;;;;;;;90.22;28.27;;;8.60;99.90;;;;;;5071372;28;20570;-47
2022/11/29 08:46:18;;;;;;;83.30;27.00;;;8.60;99.90;;;;;;5071405;28;20250;-46
2022/11/29 08:48:45;;;;;;;83.88;27.77;;;8.60;99.90;;;;;;5071775;28;20584;-46
2022/11/29 08:51:10;;;;;;;81.10;26.73;;;8.60;99.90;;;;;;5071734;28;20204;-46
2022/11/29 08:53:42;;;;;;;82.20;28.52;;;8.60;99.90;;;;;;5071388;28;20178;-46
2022/11/29 08:56:12;;;;;;;81.32;26.15;;;8.60;99.90;;;;;;5071350;28;20228;-47
2022/11/29 08:58:38;;;;;;;78.30;25.50;;;8.70;99.90;;;;;;5071299;28;20272;-47
2022/11/29 09:01:04;;;;;;;69.00;25.20;;;8.70;99.90;;;;;;5071223;28;20750;-46
2022/11/29 09:06:20;;;;;;;63.58;22.52;;;8.70;99.90;;;;;;5071277;28;20219;-48
2022/11/29 09:08:45;;;;;;;67.60;23.92;;;8.80;99.90;;;;;;5071174;28;20174;-46
2022/11/29 09:11:18;;;;;;;73.78;24.65;;;8.80;99.90;;;;;;5071853;28;20971;-46
2022/11/29 09:13:46;;;;;;;75.60;25.45;;;8.80;99.90;;;;;;5071801;28;20178;-46
2022/11/29 09:16:16;;;;;;;69.20;23.77;;;8.70;99.90;;;;;;5071532;28;20170;-46
2022/11/29 09:18:42;;;;;;;72.57;25.00;;;8.80;99.90;;;;;;5071499;28;20208;-46
2022/11/29 09:26:55;;;;;;;68.75;25.73;;;8.90;99.90;;;;;;5071055;28;20166;-47
2022/11/29 09:29:21;;;;;;;68.80;23.52;;;8.90;99.90;;;;;;5071075;28;20646;-46
2022/11/29 09:31:46;;;;;;;65.00;24.27;;;9.00;99.90;;;;;;5071344;28;20257;-46
2022/11/29 09:34:13;;;;;;;73.68;24.17;;;9.00;99.90;;;;;;5071387;28;20253;-47
2022/11/29 09:36:39;;;;;;;64.70;22.17;;;9.00;99.90;;;;;;5070945;28;20248;-46
2022/11/29 09:39:04;;;;;;;57.75;22.73;;;9.10;99.90;;;;;;5070897;28;21380;-48
2022/11/29 09:42:08;;;;;;;68.78;24.05;;;9.10;99.90;;;;;;5070923;28;20174;-46
2022/11/29 09:44:54;;;;;;;66.88;23.17;;;9.20;99.90;;;;;;5071098;28;20193;-46
2022/11/29 09:47:51;;;;;;;62.40;22.42;;;9.20;99.90;;;;;;5072300;28;20163;-47
2022/11/29 09:50:26;;;;;;;58.97;21.88;;;9.30;99.90;;;;;;5074642;28;20586;-48
2022/11/29 09:53:19;;;;;;;56.53;22.40;;;9.30;99.90;;;;;;5074466;28;20528;-46
2022/11/29 09:55:56;;;;;;;49.75;19.83;;;9.40;99.90;;;;;;5074316;28;20163;-46
2022/11/29 09:58:27;;;;;;;55.55;21.63;;;9.40;99.90;;;;;;5074197;28;20202;-46
2022/11/29 10:00:58;;;;;;;54.75;23.05;;;9.40;99.90;;;;;;5074039;28;20217;-46
2022/11/29 10:03:30;;;;;;;51.22;20.88;;;9.50;99.90;;;;;;5074041;28;20652;-46
2022/11/29 10:06:01;;;;;;;50.08;20.90;;;9.50;99.90;;;;;;5074104;28;20611;-46
2022/11/29 10:08:34;;;;;;;50.85;21.02;;;9.50;99.90;;;;;;5074133;28;20189;-47
2022/11/29 10:11:22;;;;;;;56.10;20.83;;;9.50;99.90;;;;;;5074058;28;20207;-47
2022/11/29 10:13:53;;;;;;;45.28;19.70;;;9.50;99.90;;;;;;5074050;28;20566;-47
2022/11/29 10:16:18;;;;;;;51.53;20.52;;;9.50;99.90;;;;;;5056041;28;20173;-46
2022/11/29 10:18:58;;;;;;;55.63;22.10;;;9.50;99.90;;;;;;5074224;28;20201;-46
2022/11/29 10:21:32;;;;;;;50.13;22.42;;;9.40;99.90;;;;;;5074042;28;20633;-46
2022/11/29 10:24:02;;;;;;;45.13;19.55;;;9.40;99.90;;;;;;5073956;28;20174;-46
2022/11/29 10:26:28;;;;;;;47.25;18.98;;;9.30;99.90;;;;;;5073635;28;20177;-46
2022/11/29 10:28:56;;;;;;;46.78;19.45;;;9.40;99.90;;;;;;5073792;28;20165;-46
2022/11/29 10:31:35;;;;;;;57.92;20.35;;;9.40;99.90;;;;;;5073678;28;20172;-46
2022/11/29 10:34:12;;;;;;;46.42;22.25;;;9.30;99.90;;;;;;5073535;28;20161;-46
2022/11/29 10:36:43;;;;;;;51.50;22.20;;;9.30;99.90;;;;;;5073576;28;20170;-46
2022/11/29 10:39:27;;;;;;;60.97;21.38;;;9.30;99.90;;;;;;5073507;28;20228;-46
2022/11/29 10:41:59;;;;;;;52.63;20.77;;;9.40;99.90;;;;;;5073411;28;20250;-46
2022/11/29 10:44:25;;;;;;;40.40;19.95;;;9.40;99.90;;;;;;5073534;28;20173;-46
2022/11/29 10:46:51;;;;;;;45.72;19.50;;;9.50;99.90;;;;;;5073574;28;20162;-47
2022/11/29 10:49:19;;;;;;;44.58;19.98;;;9.40;99.90;;;;;;5073540;28;20166;-46
2022/11/29 10:51:45;;;;;;;50.45;19.60;;;9.50;99.90;;;;;;5073782;28;20227;-46
2022/11/29 10:54:17;;;;;;;39.85;19.30;;;9.50;99.90;;;;;;5073592;28;20219;-46
2022/11/29 10:56:43;;;;;;;51.35;20.80;;;9.50;99.90;;;;;;5073569;28;20172;-46
2022/11/29 10:59:22;;;;;;;47.25;20.60;;;9.50;99.90;;;;;;5072273;28;20209;-46
2022/11/29 11:01:49;;;;;;;50.42;21.15;;;9.50;99.90;;;;;;5072868;28;20677;-46
2022/11/29 11:04:26;;;;;;;48.03;20.48;;;9.50;99.90;;;;;;5072953;28;20633;-46
2022/11/29 11:06:58;;;;;;;47.05;21.35;;;9.50;99.90;;;;;;5073278;28;20178;-47
2022/11/29 11:09:33;;;;;;;50.33;21.25;;;9.50;99.90;;;;;;5072745;28;20170;-47
2022/11/29 11:12:05;;;;;;;42.03;19.27;;;9.60;99.90;;;;;;5072919;28;20162;-46
2022/11/29 11:14:33;;;;;;;50.45;20.02;;;9.50;99.90;;;;;;5073022;28;20174;-46
2022/11/29 11:17:30;;;;;;;46.83;20.15;;;9.50;99.90;;;;;;5072904;28;20180;-50
2022/11/29 11:19:59;;;;;;;52.30;21.75;;;9.50;99.90;;;;;;5072897;28;20181;-46
2022/11/29 11:22:26;;;;;;;59.20;23.92;;;9.50;99.90;;;;;;5072572;28;20586;-47
2022/11/29 11:25:05;;;;;;;56.67;22.63;;;9.50;99.90;;;;;;5072696;28;20170;-47
2022/11/29 11:27:34;;;;;;;61.47;22.83;;;9.50;99.90;;;;;;5072458;28;20162;-50
2022/11/29 11:30:01;;;;;;;55.97;23.80;;;9.50;99.90;;;;;;5072480;28;20506;-46
2022/11/29 11:32:27;;;;;;;62.08;24.02;;;9.50;99.90;;;;;;5072311;28;20201;-47
2022/11/29 11:35:00;;;;;;;59.38;23.70;;;9.50;99.90;;;;;;5072722;28;20209;-47
2022/11/29 11:37:34;;;;;;;64.78;25.30;;;9.50;99.90;;;;;;5072370;28;20166;-46
2022/11/29 11:40:19;;;;;;;62.67;24.85;;;9.40;99.90;;;;;;5072356;28;20260;-46
2022/11/29 11:42:45;;;;;;;60.67;24.73;;;9.40;99.90;;;;;;5073039;28;20174;-47
2022/11/29 11:45:10;;;;;;;55.53;23.13;;;9.40;99.90;;;;;;5072721;28;20205;-48
2022/11/29 11:47:43;;;;;;;63.47;24.35;;;9.30;99.90;;;;;;5072322;28;20193;-47
2022/11/29 11:50:13;;;;;;;51.83;21.77;;;9.30;99.90;;;;;;5072166;28;20656;-48
2022/11/29 11:52:38;;;;;;;50.85;21.83;;;9.30;99.90;;;;;;5072128;28;20162;-46
2022/11/29 11:55:23;;;;;;;49.55;21.65;;;9.40;99.90;;;;;;5072040;28;20211;-46
2022/11/29 11:58:05;;;;;;;64.45;26.42;;;9.40;99.90;;;;;;5071893;28;20218;-47
2022/11/29 12:00:49;;;;;;;60.15;24.20;;;9.40;99.90;;;;;;5071831;28;20288;-47
2022/11/29 12:03:26;;;;;;;64.85;24.92;;;9.30;99.90;;;;;;5072327;28;20617;-46
2022/11/29 12:05:55;;;;;;;54.10;25.35;;;9.40;99.90;;;;;;5071859;28;20169;-46
2022/11/29 12:08:22;;;;;;;66.30;27.10;;;9.40;99.90;;;;;;5072035;28;20581;-47
2022/11/29 12:10:53;;;;;;;69.85;27.98;;;9.30;99.90;;;;;;5070939;28;20162;-48
2022/11/29 12:13:26;;;;;;;75.97;30.60;;;9.40;99.90;;;;;;5071988;28;20182;-47
2022/11/29 12:15:55;;;;;;;73.55;29.77;;;9.30;99.90;;;;;;5071759;28;20158;-48
2022/11/29 12:18:36;;;;;;;60.67;25.13;;;9.30;99.90;;;;;;5071410;28;20202;-48
2022/11/29 12:21:20;;;;;;;64.82;26.27;;;9.30;99.90;;;;;;5071777;28;20185;-48
2022/11/29 12:23:55;;;;;;;67.47;26.13;;;9.30;99.90;;;;;;5071633;28;20177;-48
2022/11/29 12:26:28;;;;;;;76.70;28.98;;;9.30;99.90;;;;;;5071413;28;20161;-47
2022/11/29 12:28:54;;;;;;;63.20;25.92;;;9.30;99.90;;;;;;5071709;28;20173;-46
2022/11/29 12:31:40;;;;;;;83.22;32.95;;;9.20;99.90;;;;;;5071719;28;20198;-48
2022/11/29 12:34:28;;;;;;;72.95;28.73;;;9.30;99.90;;;;;;5071550;28;20168;-47
2022/11/29 12:36:58;;;;;;;61.42;25.10;;;9.20;99.90;;;;;;5071586;28;20166;-47
2022/11/29 12:39:48;;;;;;;65.40;24.75;;;9.20;99.90;;;;;;5071513;28;20202;-47
2022/11/29 12:42:27;;;;;;;50.35;23.27;;;9.20;99.90;;;;;;5072022;28;20203;-48
2022/11/29 12:45:37;;;;;;;58.97;23.98;;;9.30;99.90;;;;;;5071518;28;20166;-46
2022/11/29 12:48:34;;;;;;;59.80;24.30;;;9.20;99.90;;;;;;5071386;28;20166;-47
2022/11/29 12:51:19;;;;;;;62.97;25.23;;;9.30;99.90;;;;;;5053588;28;20200;-46
2022/11/29 12:53:51;;;;;;;61.38;27.48;;;9.30;99.90;;;;;;5053419;28;20174;-46
2022/11/29 12:56:27;;;;;;;59.25;26.60;;;9.30;99.90;;;;;;5071433;28;20170;-47
2022/11/29 12:59:30;;;;;;;61.58;25.00;;;9.30;99.90;;;;;;5071417;28;20197;-47
2022/11/29 13:02:02;;;;;;;56.17;24.95;;;9.30;99.90;;;;;;5029287;28;20222;-47
2022/11/29 13:04:46;;;;;;;61.58;25.13;;;9.30;99.90;;;;;;5065181;28;20269;-47
2022/11/29 13:07:37;;;;;;;54.35;24.77;;;9.30;99.90;;;;;;5071676;28;20173;-46
2022/11/29 13:10:23;;;;;;;57.95;25.42;;;9.30;99.90;;;;;;5071340;28;20169;-49
2022/11/29 13:12:54;;;;;;;61.15;25.80;;;9.30;99.90;;;;;;5071301;28;20564;-47
2022/11/29 13:15:23;;;;;;;58.40;24.95;;;9.30;99.90;;;;;;5071206;28;20174;-46
2022/11/29 13:17:59;;;;;;;60.80;25.45;;;9.20;99.90;;;;;;5071184;28;20162;-44
2022/11/29 13:20:38;;;;;;;58.75;23.95;;;9.20;99.90;;;;;;5069011;28;20174;-45
2022/11/29 13:23:19;;;;;;;61.33;24.40;;;9.30;99.90;;;;;;5058747;28;20181;-47
2022/11/29 13:25:50;;;;;;;58.42;25.30;;;9.30;99.90;;;;;;5053144;28;20540;-48
2022/11/29 13:28:23;;;;;;;57.67;25.42;;;9.20;99.90;;;;;;5053272;28;20262;-45
2022/11/29 13:30:50;;;;;;;64.07;25.27;;;9.20;99.90;;;;;;5052933;28;20166;-47